createdAt,value
2023-02-06T16:22:27.660Z,27.55
2023-02-06T16:25:13.378Z,27.63
2023-02-06T16:27:45.524Z,24.25
2023-02-06T16:30:23.694Z,29.23
2023-02-06T16:32:51.526Z,21.58
2023-02-06T16:35:18.228Z,21.25
2023-02-06T16:37:45.438Z,20.58
2023-02-06T16:40:12.140Z,19.60
2023-02-06T16:42:46.655Z,19.73
2023-02-06T16:45:19.109Z,20.17
2023-02-06T16:50:13.337Z,19.95
2023-02-06T16:53:00.656Z,20.90
2023-02-06T16:55:28.957Z,21.20
2023-02-06T16:57:59.537Z,20.55
2023-02-06T17:00:31.249Z,21.17
2023-02-06T17:02:58.895Z,21.08
2023-02-06T17:05:28.234Z,20.75
2023-02-06T17:07:55.486Z,22.88
2023-02-06T17:10:24.875Z,20.50
2023-02-06T17:12:51.638Z,21.73
2023-02-06T17:15:19.153Z,21.48
2023-02-06T17:17:46.109Z,21.98
2023-02-06T17:20:45.120Z,20.35
2023-02-06T17:23:11.935Z,21.15
2023-02-06T17:25:40.539Z,22.92
2023-02-06T17:28:09.079Z,21.55
2023-02-06T17:30:37.887Z,24.10
2023-02-06T17:33:06.307Z,25.00
2023-02-06T17:35:36.681Z,23.52
2023-02-06T17:38:07.969Z,25.13
2023-02-06T17:40:36.620Z,26.10
2023-02-06T17:43:04.722Z,26.15
2023-02-06T17:45:32.321Z,27.08
2023-02-06T17:47:59.297Z,26.65
2023-02-06T17:50:27.668Z,25.05
2023-02-06T17:52:55.826Z,24.63
2023-02-06T17:55:23.966Z,25.02
2023-02-06T17:57:51.502Z,24.73
2023-02-06T18:00:20.371Z,25.70
2023-02-06T18:02:47.066Z,23.38
2023-02-06T18:05:13.703Z,24.20
2023-02-06T18:07:41.144Z,25.90
2023-02-06T18:10:09.245Z,25.25
2023-02-06T18:12:35.960Z,27.27
2023-02-06T18:15:03.922Z,27.90
2023-02-06T18:17:31.171Z,28.67
2023-02-06T18:19:57.792Z,27.50
2023-02-06T18:22:24.446Z,28.35
2023-02-06T18:24:51.390Z,27.90
2023-02-06T18:27:19.359Z,28.15
2023-02-06T18:29:50.843Z,27.23
2023-02-06T18:32:19.371Z,28.93
2023-02-06T18:34:46.611Z,27.17
2023-02-06T18:37:13.248Z,28.02
2023-02-06T18:39:39.826Z,27.65
2023-02-06T18:42:24.922Z,27.15
2023-02-06T18:44:51.608Z,27.23
2023-02-06T18:47:18.925Z,26.55
2023-02-06T18:49:45.936Z,26.00
2023-02-06T18:52:12.909Z,25.38
2023-02-06T18:54:39.705Z,25.10
2023-02-06T18:57:07.071Z,26.33
2023-02-06T18:59:34.670Z,27.10
2023-02-06T19:02:01.631Z,25.60
2023-02-06T19:04:28.313Z,24.35
2023-02-06T19:06:54.962Z,26.02
2023-02-06T19:09:21.652Z,25.85
2023-02-06T19:11:48.898Z,24.42
2023-02-06T19:14:18.038Z,24.05
2023-02-06T19:16:47.420Z,25.48
2023-02-06T19:19:14.754Z,25.55
2023-02-06T19:21:42.375Z,24.70
2023-02-06T19:24:13.003Z,27.02
2023-02-06T19:26:40.512Z,26.85
2023-02-06T19:29:07.734Z,29.70
2023-02-06T19:31:36.032Z,27.50
2023-02-06T19:34:02.746Z,32.65
2023-02-06T19:36:30.159Z,28.90
2023-02-06T19:39:02.451Z,27.73
2023-02-06T19:41:32.468Z,30.17
2023-02-06T19:44:03.081Z,27.95
2023-02-06T19:46:29.814Z,28.98
2023-02-06T19:48:56.522Z,28.98
2023-02-06T19:51:29.006Z,29.48
2023-02-06T19:56:25.865Z,27.70
2023-02-06T19:58:57.377Z,27.10
2023-02-06T20:01:24.968Z,29.80
2023-02-06T20:03:52.319Z,28.17
2023-02-06T20:06:19.381Z,29.75
2023-02-06T20:08:46.583Z,30.63
2023-02-06T20:11:20.671Z,31.63
2023-02-06T20:13:48.300Z,30.17
2023-02-06T20:16:20.859Z,30.75
2023-02-06T20:19:36.145Z,30.85
2023-02-06T20:22:04.458Z,28.67
2023-02-06T20:24:32.478Z,30.67
2023-02-06T20:27:01.997Z,30.38
2023-02-06T20:29:33.657Z,31.90
2023-02-06T20:32:00.881Z,31.25
2023-02-06T20:34:28.941Z,30.40
2023-02-06T20:36:56.083Z,30.80
2023-02-06T20:39:23.317Z,30.77
2023-02-06T20:41:51.001Z,31.60
2023-02-06T20:44:19.337Z,34.72
2023-02-06T20:46:46.663Z,32.38
2023-02-06T20:49:31.626Z,32.33
2023-02-06T20:51:58.773Z,32.35
2023-02-06T20:54:25.924Z,31.45
2023-02-06T20:56:52.811Z,33.00
2023-02-06T20:59:21.048Z,32.58
2023-02-06T21:01:47.759Z,30.65
2023-02-06T21:04:16.270Z,31.30
2023-02-06T21:06:43.214Z,34.38
2023-02-06T21:09:10.594Z,35.22
2023-02-06T21:11:40.786Z,33.03
2023-02-06T21:14:07.879Z,33.42
2023-02-06T21:16:35.929Z,31.90
2023-02-06T21:19:04.743Z,34.85
2023-02-06T21:21:32.218Z,34.00
2023-02-06T21:23:59.117Z,34.10
2023-02-06T21:26:26.871Z,33.97
2023-02-06T21:28:53.915Z,36.30
2023-02-06T21:31:24.200Z,36.42
2023-02-06T21:33:52.525Z,38.92
2023-02-06T21:36:21.244Z,37.50
2023-02-06T21:38:47.997Z,37.45
2023-02-06T21:41:17.728Z,38.17
2023-02-06T21:43:45.679Z,37.63
2023-02-06T21:46:13.317Z,37.47
2023-02-06T21:48:41.472Z,36.70
2023-02-06T21:51:09.685Z,37.58
2023-02-06T21:53:36.661Z,36.22
2023-02-06T21:56:14.288Z,39.22
2023-02-06T21:58:40.946Z,36.72
2023-02-06T22:01:09.004Z,39.45
2023-02-06T22:03:36.529Z,36.45
2023-02-06T22:06:14.079Z,36.80
2023-02-06T22:09:05.222Z,38.65
2023-02-06T22:11:32.297Z,35.08
2023-02-06T22:14:01.532Z,36.95
2023-02-06T22:16:29.443Z,35.30
2023-02-06T22:18:56.942Z,37.58
2023-02-06T22:21:26.374Z,36.03
2023-02-06T22:23:57.161Z,35.85
2023-02-06T22:26:24.214Z,35.53
2023-02-06T22:28:51.213Z,36.10
2023-02-06T22:31:24.307Z,34.53
2023-02-06T22:33:51.199Z,34.60
2023-02-06T22:36:21.822Z,36.45
2023-02-06T22:38:53.730Z,34.67
2023-02-06T22:41:20.653Z,35.38
2023-02-06T22:43:49.097Z,34.90
2023-02-06T22:46:21.640Z,35.30
2023-02-06T22:48:48.352Z,35.67
2023-02-06T22:51:15.073Z,37.20
2023-02-06T22:53:41.771Z,37.35
2023-02-06T22:56:32.316Z,36.78
2023-02-06T22:59:16.975Z,36.13
2023-02-06T23:01:48.141Z,36.75
2023-02-06T23:04:18.069Z,38.72
2023-02-06T23:06:45.411Z,38.42
2023-02-06T23:09:21.178Z,40.70
2023-02-06T23:11:48.689Z,39.00
2023-02-06T23:14:16.777Z,41.78
2023-02-06T23:16:44.061Z,43.92
2023-02-06T23:19:12.820Z,43.13
2023-02-06T23:21:42.222Z,40.20
2023-02-06T23:24:10.293Z,43.50
2023-02-06T23:26:37.692Z,41.40
2023-02-06T23:29:07.701Z,43.85
2023-02-06T23:31:35.574Z,45.65
2023-02-06T23:34:02.283Z,43.95
2023-02-06T23:36:29.518Z,43.90
2023-02-06T23:38:56.538Z,42.28
2023-02-06T23:41:26.199Z,42.65
2023-02-06T23:43:55.651Z,44.95
2023-02-06T23:46:23.677Z,45.33
2023-02-06T23:48:51.385Z,43.13
2023-02-06T23:51:19.105Z,45.08
2023-02-06T23:53:45.753Z,43.50
2023-02-06T23:56:14.561Z,44.65
2023-02-06T23:58:41.693Z,45.28
